Time;durP1;ratioP1;P1;durP2;ratioP2;P2;SDS_P1;SDS_P2;PMS_P1;PMS_P2;Temp;Humidity;BMP_temperature;BMP_pressure;BME280_temperature;BME280_humidity;BME280_pressure;Samples;Min_cycle;Max_cycle;Signal;HPM_P1;HPM_P2
2022/09/02 00:01:30;;;;;;;2.67;1.33;;;16.90;95.70;;;;;;5090199;28;20669;-52
2022/09/02 00:04:00;;;;;;;1.65;1.20;;;16.90;95.90;;;;;;5090562;28;20257;-52
2022/09/02 00:06:30;;;;;;;3.45;1.20;;;16.90;95.80;;;;;;5090029;28;20232;-52
2022/09/02 00:08:59;;;;;;;2.00;1.10;;;16.90;95.90;;;;;;5091044;28;20219;-51
2022/09/02 00:11:31;;;;;;;1.45;1.05;;;16.90;95.90;;;;;;5089679;28;20250;-52
2022/09/02 00:14:02;;;;;;;3.58;1.30;;;16.90;96.00;;;;;;5090867;28;20220;-52
2022/09/02 00:16:32;;;;;;;3.42;1.30;;;16.90;96.00;;;;;;5076589;28;20960;-53
2022/09/02 00:19:02;;;;;;;2.92;1.13;;;16.80;96.00;;;;;;5090544;28;20589;-52
2022/09/02 00:21:33;;;;;;;2.30;1.15;;;16.90;96.00;;;;;;5090404;28;20201;-52
2022/09/02 00:24:01;;;;;;;2.92;1.20;;;16.80;96.00;;;;;;5089732;28;20208;-51
2022/09/02 00:26:30;;;;;;;3.00;1.30;;;16.80;96.10;;;;;;5075894;28;20220;-52
2022/09/02 00:28:58;;;;;;;3.67;0.95;;;16.80;96.40;;;;;;5090204;28;20212;-52
2022/09/02 00:31:27;;;;;;;2.78;1.20;;;16.80;96.10;;;;;;5090261;28;20228;-52
2022/09/02 00:33:56;;;;;;;1.90;1.30;;;16.90;96.10;;;;;;5088937;28;20209;-52
2022/09/02 00:36:24;;;;;;;2.15;1.33;;;16.80;96.10;;;;;;5090327;28;20654;-51
2022/09/02 00:38:52;;;;;;;2.47;1.10;;;16.80;96.10;;;;;;5090228;28;20208;-51
2022/09/02 00:41:22;;;;;;;2.05;1.05;;;16.80;96.20;;;;;;5090676;28;20260;-52
2022/09/02 00:43:58;;;;;;;1.65;1.15;;;16.90;96.30;;;;;;5102106;28;20261;-52
2022/09/02 00:46:29;;;;;;;6.32;1.40;;;16.80;96.20;;;;;;5110020;28;20231;-52
2022/09/02 00:49:02;;;;;;;2.97;1.17;;;16.80;96.30;;;;;;5107273;28;20200;-52
2022/09/02 00:51:36;;;;;;;2.08;1.33;;;16.80;96.30;;;;;;5110132;28;20223;-52
2022/09/02 00:54:06;;;;;;;2.78;1.33;;;16.80;96.40;;;;;;5110949;28;20210;-52
2022/09/02 00:56:37;;;;;;;2.15;1.23;;;16.80;96.40;;;;;;5109776;28;20264;-51
2022/09/02 00:59:07;;;;;;;1.52;1.20;;;16.80;96.40;;;;;;5110944;28;20203;-51
2022/09/02 01:01:35;;;;;;;2.25;1.15;;;16.80;96.50;;;;;;5109657;28;20208;-52
2022/09/02 01:04:04;;;;;;;3.75;1.40;;;16.90;96.50;;;;;;5110237;28;20258;-52
2022/09/02 01:06:32;;;;;;;2.80;1.38;;;16.80;96.60;;;;;;5110205;28;20297;-52
2022/09/02 01:09:07;;;;;;;4.00;1.40;;;16.80;96.60;;;;;;5109905;28;20229;-51
2022/09/02 01:11:42;;;;;;;3.65;1.10;;;16.80;96.80;;;;;;5110183;28;20242;-52
2022/09/02 01:14:12;;;;;;;3.20;1.13;;;16.80;96.70;;;;;;5110323;28;20268;-51
2022/09/02 01:16:42;;;;;;;4.47;1.33;;;16.80;96.80;;;;;;5110384;28;20204;-52
2022/09/02 01:19:19;;;;;;;3.42;1.30;;;16.80;96.80;;;;;;5109823;28;20199;-52
2022/09/02 01:21:50;;;;;;;2.72;1.20;;;16.70;97.00;;;;;;5110400;28;20302;-51
2022/09/02 01:24:20;;;;;;;3.13;1.00;;;16.70;96.90;;;;;;5093724;28;20233;-52
2022/09/02 01:26:51;;;;;;;2.38;1.25;;;16.80;97.10;;;;;;5087101;28;20209;-52
2022/09/02 01:29:19;;;;;;;1.90;1.50;;;16.80;97.10;;;;;;5076539;28;20618;-52
2022/09/02 01:31:47;;;;;;;2.15;1.23;;;16.70;97.20;;;;;;5083229;28;20289;-52
2022/09/02 01:34:16;;;;;;;1.40;1.30;;;16.70;97.30;;;;;;5074832;28;20217;-52
2022/09/02 01:36:44;;;;;;;2.58;1.50;;;16.80;97.40;;;;;;5088813;28;20623;-52
2022/09/02 01:39:14;;;;;;;4.82;1.50;;;16.80;97.70;;;;;;5089365;28;20273;-52
2022/09/02 01:41:42;;;;;;;1.88;1.48;;;16.80;97.50;;;;;;5084550;28;20274;-52
2022/09/02 01:44:11;;;;;;;2.08;1.58;;;16.80;97.40;;;;;;5080139;28;20220;-52
2022/09/02 01:46:39;;;;;;;1.77;1.30;;;16.80;97.40;;;;;;5088960;28;20201;-52
2022/09/02 01:49:07;;;;;;;2.45;1.38;;;16.70;97.50;;;;;;5089437;28;20560;-52
2022/09/02 01:51:35;;;;;;;3.53;1.88;;;16.70;97.50;;;;;;5088895;28;20790;-51
2022/09/02 01:54:03;;;;;;;2.40;1.40;;;16.70;98.00;;;;;;5089479;28;20249;-52
2022/09/02 01:56:33;;;;;;;2.47;1.55;;;16.70;97.70;;;;;;5088039;28;20251;-52
2022/09/02 01:59:02;;;;;;;2.55;1.50;;;16.70;97.70;;;;;;5089316;28;20204;-52
2022/09/02 02:01:30;;;;;;;4.85;1.60;;;16.60;97.70;;;;;;5089522;28;20241;-52
2022/09/02 02:03:58;;;;;;;2.20;1.45;;;16.70;98.20;;;;;;5089447;28;20258;-52
2022/09/02 02:06:26;;;;;;;2.63;1.50;;;16.70;97.80;;;;;;5089226;28;20224;-52
2022/09/02 02:08:54;;;;;;;3.63;1.38;;;16.70;97.80;;;;;;5089028;28;20232;-52
2022/09/02 02:11:24;;;;;;;1.60;1.42;;;16.70;97.90;;;;;;5088920;28;20920;-52
2022/09/02 02:13:54;;;;;;;4.15;1.40;;;16.60;98.00;;;;;;5088940;28;20301;-51
2022/09/02 02:16:22;;;;;;;3.70;1.42;;;16.60;98.00;;;;;;5089558;28;20224;-52
2022/09/02 02:18:50;;;;;;;3.85;1.35;;;16.60;98.00;;;;;;5089070;28;20283;-51
2022/09/02 02:21:18;;;;;;;2.55;1.40;;;16.60;98.00;;;;;;5088807;28;20196;-52
2022/09/02 02:23:47;;;;;;;1.17;1.10;;;16.60;98.10;;;;;;5089193;28;20208;-52
2022/09/02 02:26:15;;;;;;;5.97;1.90;;;16.60;98.20;;;;;;5089003;28;20304;-51
2022/09/02 02:28:44;;;;;;;3.45;1.48;;;16.60;98.20;;;;;;5089014;28;20680;-52
2022/09/02 02:31:13;;;;;;;3.30;1.30;;;16.60;98.20;;;;;;5088665;28;20705;-52
2022/09/02 02:33:41;;;;;;;1.60;1.38;;;16.60;98.30;;;;;;5077864;28;20585;-52
2022/09/02 02:36:10;;;;;;;3.70;1.40;;;16.60;98.40;;;;;;5085619;28;20231;-51
2022/09/02 02:38:39;;;;;;;4.47;1.73;;;16.50;98.50;;;;;;5089044;28;20215;-52
2022/09/02 02:41:09;;;;;;;3.78;1.42;;;16.50;98.70;;;;;;5087049;28;20231;-52
2022/09/02 02:43:38;;;;;;;2.45;1.63;;;16.50;98.70;;;;;;5089366;28;20208;-52
2022/09/02 02:46:07;;;;;;;2.20;1.50;;;16.50;98.70;;;;;;5089521;28;20278;-52
2022/09/02 02:48:36;;;;;;;3.28;1.50;;;16.50;99.00;;;;;;5092592;28;20207;-52
2022/09/02 02:51:05;;;;;;;2.55;1.25;;;16.40;98.90;;;;;;5093760;28;20253;-52
2022/09/02 02:53:35;;;;;;;2.35;1.65;;;16.40;98.90;;;;;;5079394;28;20208;-52
2022/09/02 02:56:05;;;;;;;3.72;1.38;;;16.30;99.00;;;;;;5092280;28;20973;-52
2022/09/02 02:58:34;;;;;;;1.92;1.30;;;16.30;99.10;;;;;;5092011;28;20677;-52
2022/09/02 03:01:02;;;;;;;2.08;1.40;;;16.30;99.30;;;;;;5092612;28;20257;-51
2022/09/02 03:03:31;;;;;;;2.30;1.45;;;16.30;99.40;;;;;;5092247;28;20231;-51
2022/09/02 03:06:01;;;;;;;1.60;1.50;;;16.20;99.40;;;;;;5091946;28;20224;-52
2022/09/02 03:08:34;;;;;;;3.47;1.40;;;16.20;99.40;;;;;;5091795;28;20657;-51
2022/09/02 03:11:02;;;;;;;3.17;1.40;;;16.10;99.40;;;;;;5091972;28;20998;-50
2022/09/02 03:13:32;;;;;;;3.67;1.65;;;16.10;99.60;;;;;;5091470;28;20208;-52
2022/09/02 03:16:00;;;;;;;1.35;1.20;;;16.10;99.60;;;;;;5091702;28;20286;-52
2022/09/02 03:18:28;;;;;;;1.92;1.60;;;16.10;99.60;;;;;;5092153;28;20204;-52
2022/09/02 03:20:56;;;;;;;1.63;1.30;;;16.00;99.90;;;;;;5091490;28;20432;-51
2022/09/02 03:23:26;;;;;;;3.47;1.60;;;16.00;99.90;;;;;;5092049;28;20274;-52
2022/09/02 03:25:54;;;;;;;2.15;1.63;;;15.90;99.80;;;;;;5090956;28;20232;-52
2022/09/02 03:28:23;;;;;;;2.75;1.60;;;16.00;99.90;;;;;;5092019;28;20208;-52
2022/09/02 03:30:51;;;;;;;3.17;1.42;;;16.00;99.90;;;;;;5091613;28;20249;-52
2022/09/02 03:33:19;;;;;;;4.45;1.42;;;15.90;99.90;;;;;;5083453;28;20196;-52
2022/09/02 03:35:47;;;;;;;2.22;1.38;;;16.00;99.90;;;;;;5085597;28;20301;-52
2022/09/02 03:38:15;;;;;;;2.67;1.73;;;15.90;99.90;;;;;;5089438;28;20200;-52
2022/09/02 03:40:45;;;;;;;3.78;1.40;;;16.00;99.90;;;;;;5090247;28;20230;-52
2022/09/02 03:43:13;;;;;;;2.55;1.40;;;15.90;99.90;;;;;;5090906;28;20227;-51
2022/09/02 03:45:42;;;;;;;2.08;1.55;;;16.00;99.90;;;;;;5091321;28;20228;-51
2022/09/02 03:48:12;;;;;;;2.63;1.60;;;15.90;99.90;;;;;;5090371;28;20197;-52
2022/09/02 03:50:42;;;;;;;2.72;1.65;;;15.90;99.90;;;;;;5091628;28;20205;-52
2022/09/02 03:53:11;;;;;;;2.85;1.50;;;15.90;99.90;;;;;;5090712;28;20726;-52
2022/09/02 03:55:48;;;;;;;3.90;1.95;;;15.90;99.90;;;;;;5090141;28;20224;-52
2022/09/02 03:58:18;;;;;;;4.65;1.67;;;15.90;99.90;;;;;;5090574;28;20239;-52
2022/09/02 04:00:51;;;;;;;2.58;1.50;;;15.90;99.90;;;;;;5091119;28;20208;-52
2022/09/02 04:03:19;;;;;;;2.72;1.58;;;15.90;99.90;;;;;;5090719;28;20257;-52
2022/09/02 04:05:49;;;;;;;4.97;1.60;;;15.90;99.90;;;;;;5090969;28;20301;-52
2022/09/02 04:08:17;;;;;;;3.78;1.80;;;15.90;99.90;;;;;;5091108;28;20204;-52
2022/09/02 04:10:46;;;;;;;2.45;1.60;;;15.80;99.90;;;;;;5102688;28;20207;-51
2022/09/02 04:13:15;;;;;;;1.52;1.42;;;15.80;99.90;;;;;;5110815;28;20231;-52
2022/09/02 04:15:46;;;;;;;2.50;1.35;;;15.80;99.90;;;;;;5111128;28;20315;-52
2022/09/02 04:18:16;;;;;;;2.08;1.80;;;15.80;99.90;;;;;;5110937;28;20294;-52
2022/09/02 04:20:44;;;;;;;2.40;1.50;;;15.70;99.90;;;;;;5110915;28;20212;-53
2022/09/02 04:23:13;;;;;;;2.10;1.90;;;15.80;99.90;;;;;;5111177;28;20204;-51
2022/09/02 04:25:42;;;;;;;2.72;1.90;;;15.80;99.90;;;;;;5109917;28;20994;-52
2022/09/02 04:28:11;;;;;;;3.85;1.58;;;15.80;99.90;;;;;;5104880;28;20253;-51
2022/09/02 04:30:42;;;;;;;3.97;1.80;;;15.80;99.90;;;;;;5110263;28;20213;-52
2022/09/02 04:33:10;;;;;;;3.70;1.70;;;15.80;99.90;;;;;;5096286;28;20776;-51
2022/09/02 04:35:40;;;;;;;2.50;1.60;;;15.80;99.90;;;;;;5082601;28;20232;-53
2022/09/02 04:38:09;;;;;;;1.73;1.60;;;15.80;99.90;;;;;;5089603;28;20265;-51
2022/09/02 04:40:40;;;;;;;3.15;1.50;;;15.80;99.90;;;;;;5089984;28;20238;-52
2022/09/02 04:43:09;;;;;;;3.50;1.60;;;15.80;99.90;;;;;;5089879;28;20215;-52
2022/09/02 04:45:41;;;;;;;2.92;2.20;;;15.90;99.90;;;;;;5090223;28;20231;-52
2022/09/02 04:48:10;;;;;;;2.00;1.80;;;15.90;99.90;;;;;;5089798;28;20204;-52
2022/09/02 04:50:40;;;;;;;2.80;1.52;;;15.90;99.90;;;;;;5089589;28;20405;-52
2022/09/02 04:53:09;;;;;;;2.40;1.42;;;15.90;99.90;;;;;;5089861;28;20607;-52
2022/09/02 04:55:40;;;;;;;4.10;1.67;;;15.80;99.90;;;;;;5089300;28;20285;-52
2022/09/02 04:58:09;;;;;;;2.95;1.90;;;15.90;99.90;;;;;;5089712;28;20281;-52
2022/09/02 05:00:37;;;;;;;3.65;1.88;;;15.90;99.90;;;;;;5088805;28;20276;-51
2022/09/02 05:03:07;;;;;;;1.65;1.40;;;15.90;99.90;;;;;;5089909;28;20204;-52
2022/09/02 05:05:37;;;;;;;2.85;1.70;;;15.90;99.90;;;;;;5089304;28;21048;-52
2022/09/02 05:08:06;;;;;;;3.40;1.80;;;15.90;99.90;;;;;;5090212;28;20208;-50
2022/09/02 05:10:34;;;;;;;4.80;1.88;;;15.90;99.90;;;;;;5075177;28;20212;-52
2022/09/02 05:13:02;;;;;;;3.30;1.70;;;15.90;99.90;;;;;;5089152;28;20228;-52
2022/09/02 05:15:30;;;;;;;2.47;1.60;;;16.00;99.90;;;;;;5089540;28;20224;-52
2022/09/02 05:17:59;;;;;;;2.25;1.67;;;16.00;99.90;;;;;;5089660;28;20206;-52
2022/09/02 05:20:28;;;;;;;3.40;1.90;;;16.00;99.90;;;;;;5089398;28;20231;-52
2022/09/02 05:22:56;;;;;;;2.10;1.90;;;16.10;99.90;;;;;;5089330;28;20722;-52
2022/09/02 05:25:24;;;;;;;2.30;1.80;;;16.10;99.90;;;;;;5088976;28;20227;-52
2022/09/02 05:27:52;;;;;;;2.72;1.58;;;16.10;99.90;;;;;;5089689;28;20204;-52
2022/09/02 05:30:20;;;;;;;4.28;2.42;;;16.10;99.90;;;;;;5089324;28;20254;-53
2022/09/02 05:32:49;;;;;;;5.18;2.28;;;16.10;99.90;;;;;;5085907;28;20260;-53
2022/09/02 05:35:17;;;;;;;2.45;1.80;;;16.10;99.90;;;;;;5079000;28;20324;-52
2022/09/02 05:37:47;;;;;;;3.55;2.30;;;16.10;99.90;;;;;;5089110;28;20208;-52
2022/09/02 05:40:15;;;;;;;2.97;1.70;;;16.10;99.90;;;;;;5088977;28;20196;-51
2022/09/02 05:42:49;;;;;;;6.78;2.75;;;16.20;99.90;;;;;;5089624;28;20269;-52
2022/09/02 05:45:17;;;;;;;3.70;2.35;;;16.20;99.90;;;;;;5089345;28;20228;-51
2022/09/02 05:47:45;;;;;;;3.53;1.80;;;16.10;99.90;;;;;;5088841;28;20208;-52
2022/09/02 05:50:15;;;;;;;6.35;2.92;;;16.10;99.90;;;;;;5089251;28;20196;-52
2022/09/02 05:52:43;;;;;;;5.00;2.85;;;16.10;99.90;;;;;;5089409;28;20227;-53
2022/09/02 05:55:12;;;;;;;65.07;32.55;;;16.20;99.90;;;;;;5088936;28;20219;-52
2022/09/02 05:57:42;;;;;;;162.35;65.00;;;16.10;99.90;;;;;;5089135;28;20212;-52
2022/09/02 06:00:11;;;;;;;45.47;17.48;;;16.10;99.90;;;;;;5089372;28;20347;-52
2022/09/02 06:02:45;;;;;;;208.07;73.45;;;16.20;99.90;;;;;;5088829;28;20199;-53
2022/09/02 06:05:13;;;;;;;19.80;8.15;;;16.20;99.90;;;;;;5089100;28;20228;-53
2022/09/02 06:07:41;;;;;;;114.30;51.28;;;16.20;99.90;;;;;;5076521;28;20829;-52
2022/09/02 06:10:09;;;;;;;295.00;150.15;;;16.30;99.90;;;;;;5073031;28;20281;-53
2022/09/02 06:12:40;;;;;;;274.65;142.80;;;16.30;99.90;;;;;;5088312;28;20236;-52
2022/09/02 06:15:11;;;;;;;47.72;25.45;;;16.30;99.90;;;;;;5088619;28;20240;-52
2022/09/02 06:17:39;;;;;;;4.13;2.75;;;16.40;99.90;;;;;;5089420;28;20580;-52
2022/09/02 06:20:08;;;;;;;11.02;6.63;;;16.40;99.90;;;;;;5087407;28;20212;-52
2022/09/02 06:22:37;;;;;;;28.50;18.15;;;16.50;99.90;;;;;;5093074;28;20291;-52
2022/09/02 06:25:06;;;;;;;141.95;99.15;;;16.50;99.90;;;;;;5092865;28;20304;-52
2022/09/02 06:27:35;;;;;;;50.20;38.55;;;16.60;99.90;;;;;;5078595;28;20258;-52
2022/09/02 06:30:05;;;;;;;20.83;17.38;;;16.60;99.90;;;;;;5092175;28;20200;-52
2022/09/02 06:32:33;;;;;;;6.95;5.55;;;16.70;99.90;;;;;;5090431;28;20274;-52
2022/09/02 06:35:01;;;;;;;5.22;2.95;;;16.70;99.90;;;;;;5080342;28;20232;-53
2022/09/02 06:37:29;;;;;;;3.67;2.05;;;16.80;99.90;;;;;;5092867;28;20275;-53
2022/09/02 06:39:57;;;;;;;3.35;2.00;;;16.90;99.90;;;;;;5093414;28;20257;-53
2022/09/02 06:42:25;;;;;;;4.00;1.98;;;17.00;99.90;;;;;;5092763;28;20208;-52
2022/09/02 06:44:53;;;;;;;4.22;1.98;;;17.10;99.90;;;;;;5092943;28;20224;-52
2022/09/02 06:47:23;;;;;;;5.22;1.92;;;17.10;99.90;;;;;;5092744;28;20724;-51
2022/09/02 06:49:51;;;;;;;3.28;2.00;;;17.20;99.90;;;;;;5092428;28;20677;-52
2022/09/02 06:52:19;;;;;;;4.65;1.95;;;17.30;99.90;;;;;;5091174;28;20631;-52
2022/09/02 06:54:47;;;;;;;2.88;1.67;;;17.40;99.90;;;;;;5092388;28;20224;-53
2022/09/02 06:57:15;;;;;;;3.17;1.80;;;17.50;99.90;;;;;;5092417;28;20273;-53
2022/09/02 06:59:44;;;;;;;2.53;1.83;;;17.60;99.90;;;;;;5092573;28;20480;-53
2022/09/02 07:02:12;;;;;;;4.78;1.90;;;17.60;99.90;;;;;;5092519;28;20253;-53
2022/09/02 07:07:27;;;;;;;2.50;1.67;;;17.60;99.90;;;;;;5080751;28;20317;-52
2022/09/02 07:09:55;;;;;;;2.38;1.80;;;17.70;99.90;;;;;;5092069;28;20205;-53
2022/09/02 07:12:25;;;;;;;3.63;1.63;;;17.80;99.90;;;;;;5092203;28;20258;-53
2022/09/02 07:14:54;;;;;;;3.88;1.90;;;17.80;99.90;;;;;;5090477;28;20582;-52
2022/09/02 07:17:23;;;;;;;2.55;1.98;;;17.90;99.90;;;;;;5092097;28;20208;-53
2022/09/02 07:19:54;;;;;;;2.78;1.80;;;18.00;99.90;;;;;;5091274;28;20208;-53
2022/09/02 07:22:23;;;;;;;3.65;2.00;;;18.00;99.90;;;;;;5091787;28;20200;-53
2022/09/02 07:24:51;;;;;;;2.13;1.90;;;18.00;99.90;;;;;;5091027;28;20228;-52
2022/09/02 07:27:20;;;;;;;2.28;1.75;;;18.10;99.90;;;;;;5091796;28;20250;-52
2022/09/02 07:29:48;;;;;;;3.35;2.10;;;18.10;99.90;;;;;;5091313;28;20204;-52
2022/09/02 07:32:16;;;;;;;3.63;2.28;;;18.20;99.90;;;;;;5090856;28;20249;-52
2022/09/02 07:34:45;;;;;;;4.03;2.08;;;18.20;99.90;;;;;;5077045;28;20311;-52
2022/09/02 07:37:14;;;;;;;4.68;2.03;;;18.30;99.90;;;;;;5097371;28;20720;-53
2022/09/02 07:39:44;;;;;;;2.85;1.98;;;18.30;99.90;;;;;;5111663;28;20207;-52
2022/09/02 07:42:12;;;;;;;2.95;2.13;;;18.40;99.90;;;;;;5111570;28;20203;-53
2022/09/02 07:44:40;;;;;;;3.00;2.13;;;18.50;99.90;;;;;;5111851;28;20211;-52
2022/09/02 07:47:08;;;;;;;2.40;2.00;;;18.60;99.90;;;;;;5104876;28;20580;-52
2022/09/02 07:49:38;;;;;;;3.90;2.30;;;18.70;99.90;;;;;;5107100;28;20227;-52
2022/09/02 07:52:27;;;;;;;3.33;2.08;;;18.80;99.90;;;;;;5111128;28;20287;-52
2022/09/02 07:54:56;;;;;;;7.07;2.30;;;18.90;99.90;;;;;;5111358;28;20257;-52
2022/09/02 07:57:24;;;;;;;2.90;1.90;;;18.90;99.90;;;;;;5111571;28;20204;-53
2022/09/02 07:59:52;;;;;;;4.60;2.08;;;19.10;99.90;;;;;;5111022;28;20718;-52
2022/09/02 08:02:20;;;;;;;5.00;1.85;;;19.20;99.90;;;;;;5111557;28;20207;-52
2022/09/02 08:04:48;;;;;;;5.22;2.05;;;19.40;99.90;;;;;;5110426;28;20250;-52
2022/09/02 08:07:22;;;;;;;2.30;1.85;;;19.40;99.90;;;;;;5111018;28;20204;-53
2022/09/02 08:09:52;;;;;;;4.32;1.75;;;19.60;99.90;;;;;;5110663;28;20203;-53
2022/09/02 08:12:21;;;;;;;2.55;1.75;;;19.70;99.90;;;;;;5097884;28;20203;-52
2022/09/02 08:14:49;;;;;;;3.72;1.98;;;19.80;99.90;;;;;;5104618;28;20284;-53
2022/09/02 08:17:17;;;;;;;2.72;1.80;;;19.90;99.90;;;;;;5090765;28;20197;-53
2022/09/02 08:19:46;;;;;;;2.70;1.90;;;19.90;99.90;;;;;;5090210;28;20212;-51
2022/09/02 08:22:14;;;;;;;3.30;1.90;;;19.90;99.80;;;;;;5090435;28;20684;-52
2022/09/02 08:24:42;;;;;;;4.85;2.00;;;20.00;99.90;;;;;;5090600;28;20220;-52
2022/09/02 08:27:12;;;;;;;3.67;1.75;;;20.10;99.90;;;;;;5090337;28;20203;-52
2022/09/02 08:29:40;;;;;;;2.53;1.90;;;20.20;99.90;;;;;;5090104;28;20581;-52
2022/09/02 08:32:08;;;;;;;4.00;1.70;;;20.40;99.90;;;;;;5090032;28;20669;-53
2022/09/02 08:34:36;;;;;;;2.75;1.60;;;20.50;99.30;;;;;;5075881;28;20231;-52
2022/09/02 08:37:05;;;;;;;2.03;1.58;;;20.60;99.00;;;;;;5090160;28;20205;-51
2022/09/02 08:39:33;;;;;;;3.58;2.10;;;20.70;98.20;;;;;;5089650;28;20208;-51
2022/09/02 08:42:08;;;;;;;2.85;2.03;;;20.90;98.30;;;;;;5089823;28;20734;-52
2022/09/02 08:44:39;;;;;;;1.95;1.50;;;20.90;98.10;;;;;;5088977;28;20300;-53
2022/09/02 08:47:13;;;;;;;3.10;1.65;;;21.00;98.00;;;;;;5090289;28;20200;-52
2022/09/02 08:49:44;;;;;;;2.28;1.70;;;21.20;97.80;;;;;;5090217;28;20238;-52
2022/09/02 08:52:20;;;;;;;1.98;1.63;;;21.40;97.70;;;;;;5090260;28;20200;-53
2022/09/02 08:54:52;;;;;;;3.47;2.00;;;21.50;97.50;;;;;;5089095;28;20243;-52
2022/09/02 08:57:21;;;;;;;3.33;1.70;;;21.50;97.20;;;;;;5089584;28;20246;-52
2022/09/02 08:59:51;;;;;;;2.17;1.60;;;21.70;97.50;;;;;;5089510;28;20738;-52
2022/09/02 09:02:27;;;;;;;2.42;1.88;;;21.70;96.80;;;;;;5090283;28;20211;-52
2022/09/02 09:05:14;;;;;;;3.40;1.73;;;21.80;96.20;;;;;;5089247;28;20593;-52
2022/09/02 09:07:54;;;;;;;3.05;1.50;;;21.80;96.30;;;;;;5090357;28;20208;-52
2022/09/02 09:10:28;;;;;;;2.45;1.80;;;22.00;96.80;;;;;;5089496;28;20280;-53
2022/09/02 09:13:09;;;;;;;1.90;1.70;;;22.00;96.20;;;;;;5089831;28;20204;-52
2022/09/02 09:15:47;;;;;;;2.15;1.65;;;22.00;96.00;;;;;;5088918;28;20281;-52
2022/09/02 09:18:18;;;;;;;3.65;1.83;;;22.20;95.80;;;;;;5086978;28;20208;-52
2022/09/02 09:20:47;;;;;;;2.20;1.60;;;22.30;95.80;;;;;;5075333;28;20214;-53
2022/09/02 09:23:25;;;;;;;4.40;1.80;;;22.40;96.30;;;;;;5089649;28;20620;-53
2022/09/02 09:25:59;;;;;;;3.88;1.70;;;22.20;95.70;;;;;;5089014;28;20244;-52
2022/09/02 09:28:28;;;;;;;9.93;1.98;;;22.20;95.60;;;;;;5089357;28;20192;-52
2022/09/02 09:31:00;;;;;;;4.07;1.65;;;22.20;95.90;;;;;;5075493;28;20266;-52
2022/09/02 09:33:28;;;;;;;3.40;1.70;;;22.20;95.60;;;;;;5079648;28;20208;-53
2022/09/02 09:35:57;;;;;;;1.67;1.58;;;22.30;95.60;;;;;;5084458;28;20285;-52
2022/09/02 09:38:30;;;;;;;1.73;1.60;;;22.50;96.00;;;;;;5089487;28;20201;-52
2022/09/02 09:41:14;;;;;;;2.83;1.60;;;22.70;95.50;;;;;;5089351;28;20208;-52
2022/09/02 09:43:42;;;;;;;2.10;1.85;;;22.80;95.60;;;;;;5089237;28;20261;-52
2022/09/02 09:46:27;;;;;;;2.08;1.55;;;22.90;95.40;;;;;;5088330;28;20293;-53
2022/09/02 09:48:55;;;;;;;2.60;1.60;;;23.10;95.10;;;;;;5076345;28;20208;-52
2022/09/02 09:51:24;;;;;;;3.97;1.70;;;23.00;94.80;;;;;;5082694;28;20227;-52
2022/09/02 09:53:52;;;;;;;4.20;1.80;;;23.00;94.90;;;;;;5080665;28;20732;-53
2022/09/02 09:56:31;;;;;;;2.10;1.60;;;22.80;94.70;;;;;;5090047;28;20659;-53
2022/09/02 09:59:08;;;;;;;3.70;2.08;;;22.90;94.90;;;;;;5093420;28;20264;-52
2022/09/02 10:01:37;;;;;;;3.60;1.50;;;22.80;95.10;;;;;;5093253;28;20200;-53
2022/09/02 10:04:08;;;;;;;2.70;1.90;;;22.80;94.20;;;;;;5093500;28;20277;-52
2022/09/02 10:06:57;;;;;;;3.08;1.67;;;22.90;94.20;;;;;;5092724;28;20686;-52
2022/09/02 10:09:34;;;;;;;2.17;1.63;;;22.80;93.60;;;;;;5093203;28;20572;-53
2022/09/02 10:12:04;;;;;;;3.00;1.73;;;22.80;93.50;;;;;;5092745;28;20255;-52
2022/09/02 10:14:36;;;;;;;6.85;2.08;;;22.70;94.50;;;;;;5080719;28;20243;-53
2022/09/02 10:17:23;;;;;;;3.17;1.88;;;22.80;94.40;;;;;;5090280;28;20624;-53
2022/09/02 10:19:56;;;;;;;2.05;1.67;;;23.00;93.20;;;;;;5092474;28;20245;-52
2022/09/02 10:22:47;;;;;;;2.70;1.60;;;23.00;93.20;;;;;;5092486;28;20203;-51
2022/09/02 10:25:33;;;;;;;1.77;1.67;;;23.00;93.10;;;;;;5091460;28;20234;-52
2022/09/02 10:28:12;;;;;;;2.30;1.77;;;23.10;92.00;;;;;;5092571;28;20669;-53
2022/09/02 10:30:47;;;;;;;4.60;1.80;;;23.20;91.10;;;;;;5092809;28;20270;-52
2022/09/02 10:33:27;;;;;;;2.65;1.50;;;23.00;90.40;;;;;;5085355;28;20200;-53
2022/09/02 10:36:02;;;;;;;2.92;1.65;;;23.00;89.30;;;;;;5087286;28;20232;-52
2022/09/02 10:38:39;;;;;;;2.63;1.73;;;22.70;83.80;;;;;;5092777;28;20196;-52
2022/09/02 10:41:21;;;;;;;2.65;1.52;;;22.60;84.10;;;;;;5091956;28;20243;-52
2022/09/02 10:44:03;;;;;;;2.80;1.40;;;22.90;87.70;;;;;;5092029;28;20997;-52
2022/09/02 10:46:48;;;;;;;1.38;1.27;;;23.10;86.10;;;;;;5092028;28;20228;-52
2022/09/02 10:49:25;;;;;;;3.65;1.55;;;23.30;84.00;;;;;;5091534;28;20578;-53
2022/09/02 10:52:07;;;;;;;3.28;1.85;;;23.10;82.80;;;;;;5092467;28;20208;-53
2022/09/02 10:54:47;;;;;;;1.77;1.65;;;23.00;84.90;;;;;;5091385;28;20603;-52
2022/09/02 10:57:19;;;;;;;1.88;1.33;;;23.00;84.90;;;;;;5092328;28;20884;-53
2022/09/02 10:59:54;;;;;;;1.60;1.48;;;23.00;84.90;;;;;;5092231;28;20845;-52
2022/09/02 11:02:26;;;;;;;3.42;1.70;;;23.10;86.50;;;;;;5097725;28;20203;-52
2022/09/02 11:05:00;;;;;;;1.92;1.63;;;23.10;86.80;;;;;;5103531;28;20327;-52
2022/09/02 11:07:36;;;;;;;3.22;1.70;;;23.10;87.90;;;;;;5108506;28;20208;-52
2022/09/02 11:10:11;;;;;;;3.15;1.70;;;23.00;87.60;;;;;;5112750;28;20214;-53
2022/09/02 11:12:45;;;;;;;3.40;1.80;;;23.00;88.10;;;;;;5112393;28;20195;-52
2022/09/02 11:15:20;;;;;;;3.25;1.70;;;23.10;89.10;;;;;;5112258;28;20242;-53
2022/09/02 11:17:54;;;;;;;3.15;1.60;;;23.10;86.80;;;;;;5112447;28;20252;-52
2022/09/02 11:20:34;;;;;;;3.00;2.00;;;23.00;88.30;;;;;;5112160;28;20546;-52
2022/09/02 11:23:13;;;;;;;2.75;1.67;;;23.20;87.50;;;;;;5111605;28;20195;-52
2022/09/02 11:25:47;;;;;;;2.75;1.60;;;23.40;88.00;;;;;;5110816;28;20219;-53
2022/09/02 11:28:28;;;;;;;2.47;1.60;;;23.30;85.40;;;;;;5111174;28;20198;-53
2022/09/02 11:31:06;;;;;;;2.85;1.80;;;23.10;84.80;;;;;;5112068;28;20222;-53
2022/09/02 11:33:46;;;;;;;3.78;1.38;;;23.10;86.30;;;;;;5094887;28;20204;-52
2022/09/02 11:36:17;;;;;;;1.67;1.25;;;23.10;85.50;;;;;;5091109;28;20274;-52
2022/09/02 11:38:51;;;;;;;4.82;1.75;;;23.10;85.90;;;;;;5092231;28;20212;-53
2022/09/02 11:41:28;;;;;;;2.70;1.50;;;23.20;85.70;;;;;;5091353;28;20548;-52
2022/09/02 11:44:19;;;;;;;3.97;1.67;;;23.10;85.10;;;;;;5091467;28;20216;-52
2022/09/02 11:47:02;;;;;;;2.83;1.65;;;22.90;83.80;;;;;;5090887;28;20677;-52
2022/09/02 11:50:01;;;;;;;3.95;1.67;;;23.00;84.10;;;;;;5090876;28;20249;-53
2022/09/02 11:52:45;;;;;;;1.95;1.52;;;23.00;84.50;;;;;;5087791;28;20215;-53
2022/09/02 11:55:17;;;;;;;2.38;1.80;;;22.90;83.80;;;;;;5077792;28;20691;-51
2022/09/02 11:57:52;;;;;;;1.40;1.30;;;22.70;81.70;;;;;;5083483;28;20223;-52
2022/09/02 12:00:31;;;;;;;1.30;1.20;;;22.50;83.00;;;;;;5076930;28;20199;-53
2022/09/02 12:03:14;;;;;;;3.17;1.70;;;22.50;83.80;;;;;;5090840;28;20249;-53
2022/09/02 12:06:08;;;;;;;1.88;1.73;;;22.50;83.80;;;;;;5081717;28;20303;-53
2022/09/02 12:09:11;;;;;;;2.78;1.65;;;22.50;83.40;;;;;;5090391;28;20234;-52
2022/09/02 12:11:52;;;;;;;3.40;1.70;;;22.80;83.50;;;;;;5076084;28;20262;-51
2022/09/02 12:15:05;;;;;;;2.10;1.50;;;22.90;84.00;;;;;;5089549;28;20778;-51
2022/09/02 12:18:12;;;;;;;1.60;1.50;;;23.10;82.90;;;;;;4996267;28;20281;-51
2022/09/02 12:21:09;;;;;;;2.60;1.63;;;23.30;80.20;;;;;;5052319;28;20268;-53
2022/09/02 12:24:21;;;;;;;3.25;1.60;;;23.50;81.70;;;;;;5089854;28;20211;-52
2022/09/02 12:27:20;;;;;;;2.72;1.85;;;23.80;82.20;;;;;;5046107;28;20212;-53
2022/09/02 12:29:50;;;;;;;1.98;1.73;;;23.70;81.40;;;;;;5089637;28;20208;-51
2022/09/02 12:33:03;;;;;;;3.55;1.70;;;23.50;82.20;;;;;;5089978;28;20207;-52
2022/09/02 12:35:51;;;;;;;3.22;1.63;;;23.30;82.00;;;;;;5081461;28;20262;-50
2022/09/02 12:38:34;;;;;;;2.67;1.60;;;23.40;82.30;;;;;;5076963;28;20203;-53
2022/09/02 12:41:26;;;;;;;2.05;1.60;;;23.50;82.50;;;;;;5090207;28;20291;-51
2022/09/02 12:44:20;;;;;;;3.03;1.60;;;23.50;82.50;;;;;;5089339;28;20214;-52
2022/09/02 12:47:02;;;;;;;5.07;1.55;;;23.40;82.20;;;;;;5076504;28;20204;-53
2022/09/02 12:49:47;;;;;;;4.50;1.63;;;23.40;82.50;;;;;;5089679;28;20257;-52
2022/09/02 12:52:41;;;;;;;4.07;1.73;;;23.30;82.20;;;;;;5075393;28;20209;-53
2022/09/02 12:55:15;;;;;;;4.05;1.80;;;23.10;81.50;;;;;;5088576;28;20273;-52
2022/09/02 12:57:46;;;;;;;3.15;1.65;;;23.00;82.90;;;;;;5089824;28;20223;-53
2022/09/02 13:00:18;;;;;;;1.92;1.70;;;22.90;82.20;;;;;;5088823;28;20204;-53
2022/09/02 13:02:59;;;;;;;5.25;1.60;;;22.90;84.40;;;;;;5089263;28;20730;-53
2022/09/02 13:05:37;;;;;;;2.30;1.67;;;23.00;83.70;;;;;;5089319;28;20228;-53
2022/09/02 13:08:32;;;;;;;2.58;1.60;;;23.00;82.40;;;;;;5089708;28;20239;-52
2022/09/02 13:11:34;;;;;;;2.03;1.88;;;22.90;82.50;;;;;;5078946;28;20208;-53
2022/09/02 13:14:38;;;;;;;2.33;1.75;;;22.90;83.60;;;;;;5085754;28;20238;-53
2022/09/02 13:17:45;;;;;;;3.58;1.52;;;22.90;83.10;;;;;;5088963;28;20231;-53